Aeroporto :
LOGIN :

Iscrizione | Disclaimer

   EN    FR    IT 

 










Sommario :    VFR   VFR Marginale   IFR   IFR Intensivo   IFR Molto Intensivo
Visibilità : 
Base nubi : 
>= 8 km
>= 3000ft
5 / 8 km
1000 / 3000 ft
1500m / 5 km
500 / 1000 ft
800 / 1500m
200 / 500 ft
< 800m
< 200 ft
Simboli :   Temporali  Nebbia  Neve Forte  Precipitazioni Forti  Vento > 20 kt
SIGMETs :   Varie  Temporali  Ghiacco  Turbolenza  Onda orograficha  Ceneri Vulcaniche






- Altitudine del aeroporto : 194 ft


EBCV - Chièvres

ULTIMO METAR :
  • 162125Z AUTO 29006KT 9999 BKN071/// 23/16 Q1010 BLU

METARs OBSOLETI :
  • 162055Z AUTO 06003KT 9999 BKN072/// BKN120/// 22/16 Q1009 BLU
  • 162025Z AUTO 03004KT 9999 BKN130/// 23/16 Q1009 BLU
  • 161955Z AUTO 03004KT 9999 BKN150/// BKN200/// 23/16 Q1009 BLU
  • 161948Z AUTO 03003KT 9999 FEW110/// SCT150/// BKN200/// 23/16 Q1009 BLU
  • 161937Z AUTO VRB02KT 6000 FEW089/// SCT110/// BKN210/// 23/16 Q1009 WHT
  • 161855Z AUTO 36004KT 9999 SCT082/// 24/16 Q1009 BLU
  • 161825Z AUTO 01005KT 9999 FEW084/// 25/16 Q1008 BLU

TAF TAF EBCV
Valido dal 16 a 19 ore il 17 a 07 ore UTC


161541Z 1619/1707 20006KT 9999 FEW040 SCT100 BKN130
TEMPO 1619/1703 20010G22KT 4000 SHRA FEW015 SCT025TCU BKN040
PROB30
TEMPO 1619/1702 VRB15G25KT 2000 TSRA SCT010 SCT020CB BKN030
TEMPO 1703/1705 5000 BR BKN100 BY EBWM



MetMap, La meteo Aeronautica in un colpo d'occhio ! - Copyright ORBIFLY Dicembre 2007 - Disclaimer

ORBIFLY MET'MAP TEAM :

Programmazione e sviluppo : Alexandra Zaïnal
Concezione : Baudouin d'Aumeries
Supporto tecnico e logistico : Manuel Goepfert
Aiuto : Marc-Olivier Méhu
Aiuto per la traduzione : Arnaldo La Scala




FONTI E CREDITI :

   NOAA